sensor_id;sensor_type;location;lat;lon;timestamp;pressure;altitude;pressure_sealevel;temperature;humidity
76311;BME280;65120;59.304;18.294;2024-01-27T00:02:20;100740.50;;;0.91;79.69
76311;BME280;65120;59.304;18.294;2024-01-27T00:04:47;100745.66;;;0.91;79.77
76311;BME280;65120;59.304;18.294;2024-01-27T00:07:15;100750.81;;;0.91;79.86
76311;BME280;65120;59.304;18.294;2024-01-27T00:09:42;100756.81;;;0.92;79.75
76311;BME280;65120;59.304;18.294;2024-01-27T00:12:10;100755.91;;;0.90;79.70
76311;BME280;65120;59.304;18.294;2024-01-27T00:14:38;100763.69;;;0.91;79.27
76311;BME280;65120;59.304;18.294;2024-01-27T00:17:05;100768.84;;;0.91;79.17
76311;BME280;65120;59.304;18.294;2024-01-27T00:19:32;100770.56;;;0.91;79.25
76311;BME280;65120;59.304;18.294;2024-01-27T00:21:59;100761.88;;;0.86;79.37
76311;BME280;65120;59.304;18.294;2024-01-27T00:24:26;100779.97;;;0.90;79.51
76311;BME280;65120;59.304;18.294;2024-01-27T00:26:53;100786.00;;;0.91;78.93
76311;BME280;65120;59.304;18.294;2024-01-27T00:29:21;100785.09;;;0.90;79.35
76311;BME280;65120;59.304;18.294;2024-01-27T00:31:48;100787.69;;;0.90;79.42
76311;BME280;65120;59.304;18.294;2024-01-27T00:34:16;100791.13;;;0.89;79.17
76311;BME280;65120;59.304;18.294;2024-01-27T00:36:43;100792.84;;;0.90;79.35
76311;BME280;65120;59.304;18.294;2024-01-27T00:39:14;100785.94;;;0.88;78.91
76311;BME280;65120;59.304;18.294;2024-01-27T00:41:41;100795.41;;;0.89;79.26
76311;BME280;65120;59.304;18.294;2024-01-27T00:44:08;100798.84;;;0.89;78.97
76311;BME280;65120;59.304;18.294;2024-01-27T00:46:36;100810.88;;;0.90;79.37
76311;BME280;65120;59.304;18.294;2024-01-27T00:49:03;100814.28;;;0.89;78.92
76311;BME280;65120;59.304;18.294;2024-01-27T00:51:30;100822.88;;;0.88;78.77
76311;BME280;65120;59.304;18.294;2024-01-27T00:53:57;100822.88;;;0.88;79.27
76311;BME280;65120;59.304;18.294;2024-01-27T00:56:24;100822.88;;;0.88;79.28
76311;BME280;65120;59.304;18.294;2024-01-27T00:58:51;100827.13;;;0.88;79.01
76311;BME280;65120;59.304;18.294;2024-01-27T01:01:18;100833.19;;;0.88;79.45
76311;BME280;65120;59.304;18.294;2024-01-27T01:03:46;100843.47;;;0.88;79.31
76311;BME280;65120;59.304;18.294;2024-01-27T01:06:13;100852.03;;;0.87;79.33
76311;BME280;65120;59.304;18.294;2024-01-27T01:08:40;100846.88;;;0.87;79.26
76311;BME280;65120;59.304;18.294;2024-01-27T01:11:07;100856.38;;;0.88;78.89
76311;BME280;65120;59.304;18.294;2024-01-27T01:13:35;100862.34;;;0.87;79.44
76311;BME280;65120;59.304;18.294;2024-01-27T01:16:02;100868.34;;;0.88;79.24
76311;BME280;65120;59.304;18.294;2024-01-27T01:18:29;100882.13;;;0.88;79.34
76311;BME280;65120;59.304;18.294;2024-01-27T01:20:58;100880.38;;;0.87;78.89
76311;BME280;65120;59.304;18.294;2024-01-27T01:23:25;100878.63;;;0.86;79.25
76311;BME280;65120;59.304;18.294;2024-01-27T01:25:52;100893.25;;;0.87;79.48
76311;BME280;65120;59.304;18.294;2024-01-27T01:28:19;100903.56;;;0.87;79.04
76311;BME280;65120;59.304;18.294;2024-01-27T01:30:46;100908.66;;;0.84;78.89
76311;BME280;65120;59.304;18.294;2024-01-27T01:33:12;100915.56;;;0.85;79.32
76311;BME280;65120;59.304;18.294;2024-01-27T01:35:39;100898.19;;;0.76;78.62
76311;BME280;65120;59.304;18.294;2024-01-27T01:38:08;100925.84;;;0.85;78.98
76311;BME280;65120;59.304;18.294;2024-01-27T01:40:35;100930.13;;;0.85;78.83
76311;BME280;65120;59.304;18.294;2024-01-27T01:43:02;100934.44;;;0.86;78.83
76311;BME280;65120;59.304;18.294;2024-01-27T01:45:29;100946.47;;;0.85;78.71
76311;BME280;65120;59.304;18.294;2024-01-27T01:47:57;100943.03;;;0.86;79.21
76311;BME280;65120;59.304;18.294;2024-01-27T01:50:24;100931.66;;;0.76;79.31
76311;BME280;65120;59.304;18.294;2024-01-27T01:52:52;100950.72;;;0.85;78.81
76311;BME280;65120;59.304;18.294;2024-01-27T01:55:21;100955.00;;;0.84;79.20
76311;BME280;65120;59.304;18.294;2024-01-27T01:57:48;100955.81;;;0.82;79.08
76311;BME280;65120;59.304;18.294;2024-01-27T02:00:16;100965.31;;;0.84;78.77
76311;BME280;65120;59.304;18.294;2024-01-27T02:02:43;100958.38;;;0.80;79.09
76311;BME280;65120;59.304;18.294;2024-01-27T02:05:11;100970.47;;;0.84;78.98
76311;BME280;65120;59.304;18.294;2024-01-27T02:07:38;100974.75;;;0.84;78.99
76311;BME280;65120;59.304;18.294;2024-01-27T02:10:06;100991.06;;;0.84;79.29
76311;BME280;65120;59.304;18.294;2024-01-27T02:12:40;100990.16;;;0.80;78.61
76311;BME280;65120;59.304;18.294;2024-01-27T02:15:10;100996.16;;;0.81;78.82
76311;BME280;65120;59.304;18.294;2024-01-27T02:17:38;101003.94;;;0.83;79.14
76311;BME280;65120;59.304;18.294;2024-01-27T02:20:06;101001.31;;;0.81;79.12
76311;BME280;65120;59.304;18.294;2024-01-27T02:22:33;101008.19;;;0.80;78.82
76311;BME280;65120;59.304;18.294;2024-01-27T02:25:02;101017.63;;;0.80;79.18
76311;BME280;65120;59.304;18.294;2024-01-27T02:27:29;101037.38;;;0.81;78.91
76311;BME280;65120;59.304;18.294;2024-01-27T02:29:56;101034.78;;;0.81;79.07
76311;BME280;65120;59.304;18.294;2024-01-27T02:32:23;101044.22;;;0.80;78.82
76311;BME280;65120;59.304;18.294;2024-01-27T02:34:50;101055.38;;;0.79;79.35
76311;BME280;65120;59.304;18.294;2024-01-27T02:37:18;101057.97;;;0.79;79.17
76311;BME280;65120;59.304;18.294;2024-01-27T02:39:45;101069.13;;;0.80;79.07
76311;BME280;65120;59.304;18.294;2024-01-27T02:42:14;101069.06;;;0.78;78.66
76311;BME280;65120;59.304;18.294;2024-01-27T02:44:41;101069.94;;;0.77;79.09
76311;BME280;65120;59.304;18.294;2024-01-27T02:47:08;101074.22;;;0.78;79.02
76311;BME280;65120;59.304;18.294;2024-01-27T02:49:34;101076.81;;;0.78;79.36
76311;BME280;65120;59.304;18.294;2024-01-27T02:52:01;101078.53;;;0.78;79.03
76311;BME280;65120;59.304;18.294;2024-01-27T02:54:28;101072.31;;;0.68;79.38
76311;BME280;65120;59.304;18.294;2024-01-27T02:56:56;101084.53;;;0.78;79.22
76311;BME280;65120;59.304;18.294;2024-01-27T02:59:24;101088.78;;;0.76;78.99
76311;BME280;65120;59.304;18.294;2024-01-27T03:01:51;101087.97;;;0.77;79.25
76311;BME280;65120;59.304;18.294;2024-01-27T03:04:18;101093.06;;;0.76;79.11
76311;BME280;65120;59.304;18.294;2024-01-27T03:06:45;101095.63;;;0.76;79.49
76311;BME280;65120;59.304;18.294;2024-01-27T03:09:12;101105.13;;;0.77;79.18
76311;BME280;65120;59.304;18.294;2024-01-27T03:11:39;101108.56;;;0.77;78.91
76311;BME280;65120;59.304;18.294;2024-01-27T03:14:06;101109.38;;;0.76;79.32
76311;BME280;65120;59.304;18.294;2024-01-27T03:16:34;101118.81;;;0.76;78.92
76311;BME280;65120;59.304;18.294;2024-01-27T03:19:01;101123.16;;;0.77;78.92
76311;BME280;65120;59.304;18.294;2024-01-27T03:21:29;101129.97;;;0.75;78.97
76311;BME280;65120;59.304;18.294;2024-01-27T03:23:56;101136.84;;;0.76;79.38
76311;BME280;65120;59.304;18.294;2024-01-27T03:26:23;101141.13;;;0.75;79.54
76311;BME280;65120;59.304;18.294;2024-01-27T03:28:50;101149.69;;;0.74;79.17
76311;BME280;65120;59.304;18.294;2024-01-27T03:31:17;101158.25;;;0.73;79.29
76311;BME280;65120;59.304;18.294;2024-01-27T03:33:45;101156.50;;;0.72;79.52
76311;BME280;65120;59.304;18.294;2024-01-27T03:36:13;101160.81;;;0.72;79.26
76311;BME280;65120;59.304;18.294;2024-01-27T03:38:40;101167.59;;;0.70;79.42
76311;BME280;65120;59.304;18.294;2024-01-27T03:41:07;101187.41;;;0.72;79.35
76311;BME280;65120;59.304;18.294;2024-01-27T03:43:34;101194.28;;;0.73;79.11
76311;BME280;65120;59.304;18.294;2024-01-27T03:46:01;101201.16;;;0.73;78.94
76311;BME280;65120;59.304;18.294;2024-01-27T03:48:28;101219.19;;;0.73;79.31
76311;BME280;65120;59.304;18.294;2024-01-27T03:50:57;101231.19;;;0.72;79.26
76311;BME280;65120;59.304;18.294;2024-01-27T03:53:23;101245.78;;;0.72;79.02
76311;BME280;65120;59.304;18.294;2024-01-27T03:55:50;101266.38;;;0.72;79.32
76311;BME280;65120;59.304;18.294;2024-01-27T03:58:17;101260.38;;;0.71;79.35
76311;BME280;65120;59.304;18.294;2024-01-27T04:00:44;101263.75;;;0.69;78.93
76311;BME280;65120;59.304;18.294;2024-01-27T04:03:11;101272.34;;;0.69;78.94
76311;BME280;65120;59.304;18.294;2024-01-27T04:05:39;101273.19;;;0.68;78.89
76311;BME280;65120;59.304;18.294;2024-01-27T04:08:07;101266.25;;;0.67;78.97
76311;BME280;65120;59.304;18.294;2024-01-27T04:10:34;101274.84;;;0.66;79.48
76311;BME280;65120;59.304;18.294;2024-01-27T04:13:01;101279.97;;;0.66;79.27
76311;BME280;65120;59.304;18.294;2024-01-27T04:15:28;101298.00;;;0.66;79.31
76311;BME280;65120;59.304;18.294;2024-01-27T04:17:55;101303.06;;;0.63;79.07
76311;BME280;65120;59.304;18.294;2024-01-27T04:20:22;101305.72;;;0.66;79.54
76311;BME280;65120;59.304;18.294;2024-01-27T04:22:49;101285.63;;;0.53;78.79
76311;BME280;65120;59.304;18.294;2024-01-27T04:25:17;101311.72;;;0.65;78.73
76311;BME280;65120;59.304;18.294;2024-01-27T04:27:44;101327.13;;;0.64;79.00
76311;BME280;65120;59.304;18.294;2024-01-27T04:30:11;101322.81;;;0.63;78.69
76311;BME280;65120;59.304;18.294;2024-01-27T04:32:39;101336.50;;;0.62;79.06
76311;BME280;65120;59.304;18.294;2024-01-27T04:35:08;101334.63;;;0.56;78.73
76311;BME280;65120;59.304;18.294;2024-01-27T04:37:36;101342.50;;;0.61;78.69
76311;BME280;65120;59.304;18.294;2024-01-27T04:40:04;101354.50;;;0.60;78.81
76311;BME280;65120;59.304;18.294;2024-01-27T04:42:34;101366.50;;;0.60;78.63
76311;BME280;65120;59.304;18.294;2024-01-27T04:45:01;101369.91;;;0.58;79.04
76311;BME280;65120;59.304;18.294;2024-01-27T04:47:28;101377.63;;;0.58;78.63
76311;BME280;65120;59.304;18.294;2024-01-27T04:49:55;101381.03;;;0.57;78.91
76311;BME280;65120;59.304;18.294;2024-01-27T04:52:22;101382.66;;;0.54;78.70
76311;BME280;65120;59.304;18.294;2024-01-27T04:54:49;101387.81;;;0.54;78.46
76311;BME280;65120;59.304;18.294;2024-01-27T04:57:16;101384.41;;;0.55;78.73
76311;BME280;65120;59.304;18.294;2024-01-27T04:59:45;101396.41;;;0.54;78.71
76311;BME280;65120;59.304;18.294;2024-01-27T05:02:12;101393.69;;;0.50;78.47
76311;BME280;65120;59.304;18.294;2024-01-27T05:04:39;101399.63;;;0.47;78.03
76311;BME280;65120;59.304;18.294;2024-01-27T05:07:06;101410.94;;;0.52;78.33
76311;BME280;65120;59.304;18.294;2024-01-27T05:09:34;101425.50;;;0.52;78.41
76311;BME280;65120;59.304;18.294;2024-01-27T05:12:01;101417.72;;;0.50;78.68
76311;BME280;65120;59.304;18.294;2024-01-27T05:14:28;101422.88;;;0.50;78.71
76311;BME280;65120;59.304;18.294;2024-01-27T05:16:57;101440.09;;;0.51;78.08
76311;BME280;65120;59.304;18.294;2024-01-27T05:19:24;101426.28;;;0.49;78.60
76311;BME280;65120;59.304;18.294;2024-01-27T05:21:50;101425.41;;;0.49;78.60
76311;BME280;65120;59.304;18.294;2024-01-27T05:24:16;101427.13;;;0.48;78.34
76311;BME280;65120;59.304;18.294;2024-01-27T05:26:43;101441.72;;;0.49;78.68
76311;BME280;65120;59.304;18.294;2024-01-27T05:29:10;101445.94;;;0.46;78.33
76311;BME280;65120;59.304;18.294;2024-01-27T05:31:37;101454.53;;;0.48;78.14
76311;BME280;65120;59.304;18.294;2024-01-27T05:34:06;101446.63;;;0.40;78.80
76311;BME280;65120;59.304;18.294;2024-01-27T05:36:33;101462.25;;;0.46;78.61
76311;BME280;65120;59.304;18.294;2024-01-27T05:39:00;101464.84;;;0.48;78.43
76311;BME280;65120;59.304;18.294;2024-01-27T05:41:28;101463.09;;;0.47;78.47
76311;BME280;65120;59.304;18.294;2024-01-27T05:43:55;101476.84;;;0.47;78.62
76311;BME280;65120;59.304;18.294;2024-01-27T05:46:23;101475.97;;;0.47;78.35
76311;BME280;65120;59.304;18.294;2024-01-27T05:48:50;101481.97;;;0.46;78.64
76311;BME280;65120;59.304;18.294;2024-01-27T05:51:21;101492.28;;;0.46;78.32
76311;BME280;65120;59.304;18.294;2024-01-27T05:53:49;101499.06;;;0.44;78.67
76311;BME280;65120;59.304;18.294;2024-01-27T05:56:16;101513.66;;;0.43;78.44
76311;BME280;65120;59.304;18.294;2024-01-27T05:58:43;101510.06;;;0.38;78.01
76311;BME280;65120;59.304;18.294;2024-01-27T06:01:10;101525.59;;;0.41;78.14
76311;BME280;65120;59.304;18.294;2024-01-27T06:03:37;101529.03;;;0.42;78.34
76311;BME280;65120;59.304;18.294;2024-01-27T06:06:04;101530.72;;;0.40;78.05
76311;BME280;65120;59.304;18.294;2024-01-27T06:08:32;101533.28;;;0.40;78.36
76311;BME280;65120;59.304;18.294;2024-01-27T06:10:59;101540.94;;;0.38;78.49
76311;BME280;65120;59.304;18.294;2024-01-27T06:13:26;101539.19;;;0.37;78.40
76311;BME280;65120;59.304;18.294;2024-01-27T06:15:53;101541.78;;;0.37;78.00
76311;BME280;65120;59.304;18.294;2024-01-27T06:18:20;101552.00;;;0.35;78.25
76311;BME280;65120;59.304;18.294;2024-01-27T06:20:47;101555.44;;;0.36;77.81
76311;BME280;65120;59.304;18.294;2024-01-27T06:23:14;101563.19;;;0.36;77.78
76311;BME280;65120;59.304;18.294;2024-01-27T06:25:43;101570.00;;;0.34;77.77
76311;BME280;65120;59.304;18.294;2024-01-27T06:28:09;101569.09;;;0.33;77.99
76311;BME280;65120;59.304;18.294;2024-01-27T06:30:36;101572.50;;;0.32;77.97
76311;BME280;65120;59.304;18.294;2024-01-27T06:33:04;101566.50;;;0.32;77.57
76311;BME280;65120;59.304;18.294;2024-01-27T06:35:31;101566.41;;;0.29;77.48
76311;BME280;65120;59.304;18.294;2024-01-27T06:37:58;101570.69;;;0.28;77.90
76311;BME280;65120;59.304;18.294;2024-01-27T06:40:25;101573.16;;;0.25;78.24
76311;BME280;65120;59.304;18.294;2024-01-27T06:42:53;101576.59;;;0.26;77.88
76311;BME280;65120;59.304;18.294;2024-01-27T06:45:20;101574.81;;;0.25;77.49
76311;BME280;65120;59.304;18.294;2024-01-27T06:47:47;101581.66;;;0.23;77.67
76311;BME280;65120;59.304;18.294;2024-01-27T06:50:17;101587.50;;;0.19;77.72
76311;BME280;65120;59.304;18.294;2024-01-27T06:52:44;101603.88;;;0.21;77.51
76311;BME280;65120;59.304;18.294;2024-01-27T06:55:11;101605.50;;;0.19;77.52
76311;BME280;65120;59.304;18.294;2024-01-27T06:57:38;101604.44;;;0.12;78.02
76311;BME280;65120;59.304;18.294;2024-01-27T07:00:08;101613.13;;;0.16;77.63
76311;BME280;65120;59.304;18.294;2024-01-27T07:02:39;101615.59;;;0.12;77.75
76311;BME280;65120;59.304;18.294;2024-01-27T07:05:07;101613.03;;;0.12;77.45
76311;BME280;65120;59.304;18.294;2024-01-27T07:07:34;101618.91;;;0.08;77.68
76311;BME280;65120;59.304;18.294;2024-01-27T07:10:02;101623.16;;;0.08;77.85
76311;BME280;65120;59.304;18.294;2024-01-27T07:12:29;101618.81;;;0.05;77.42
76311;BME280;65120;59.304;18.294;2024-01-27T07:14:56;101624.75;;;0.04;77.62
76311;BME280;65120;59.304;18.294;2024-01-27T07:17:26;101633.22;;;0.00;77.27
76311;BME280;65120;59.304;18.294;2024-01-27T07:19:53;101639.22;;;0.01;77.28
76311;BME280;65120;59.304;18.294;2024-01-27T07:22:20;101638.16;;;-0.06;77.74
76311;BME280;65120;59.304;18.294;2024-01-27T07:24:47;101647.59;;;-0.05;77.50
76311;BME280;65120;59.304;18.294;2024-01-27T07:27:17;101657.91;;;-0.05;77.69
76311;BME280;65120;59.304;18.294;2024-01-27T07:29:44;101666.44;;;-0.06;76.95
76311;BME280;65120;59.304;18.294;2024-01-27T07:32:11;101671.47;;;-0.09;77.16
76311;BME280;65120;59.304;18.294;2024-01-27T07:34:42;101671.34;;;-0.12;77.76
76311;BME280;65120;59.304;18.294;2024-01-27T07:37:09;101674.75;;;-0.13;77.32
76311;BME280;65120;59.304;18.294;2024-01-27T07:39:36;101683.22;;;-0.16;76.84
76311;BME280;65120;59.304;18.294;2024-01-27T07:42:03;101679.78;;;-0.16;77.62
76311;BME280;65120;59.304;18.294;2024-01-27T07:44:30;101678.81;;;-0.20;76.84
76311;BME280;65120;59.304;18.294;2024-01-27T07:46:57;101682.16;;;-0.22;77.21
76311;BME280;65120;59.304;18.294;2024-01-27T07:49:24;101682.94;;;-0.23;77.06
76311;BME280;65120;59.304;18.294;2024-01-27T07:51:53;101682.03;;;-0.25;76.89
76311;BME280;65120;59.304;18.294;2024-01-27T07:54:20;101697.41;;;-0.27;76.90
76311;BME280;65120;59.304;18.294;2024-01-27T07:56:48;101708.44;;;-0.29;77.55
76311;BME280;65120;59.304;18.294;2024-01-27T07:59:15;101722.13;;;-0.30;77.15
76311;BME280;65120;59.304;18.294;2024-01-27T08:01:42;101732.34;;;-0.32;76.93
76311;BME280;65120;59.304;18.294;2024-01-27T08:04:09;101727.16;;;-0.34;77.46
76311;BME280;65120;59.304;18.294;2024-01-27T08:06:46;101737.38;;;-0.35;76.99
76311;BME280;65120;59.304;18.294;2024-01-27T08:09:15;101751.84;;;-0.39;77.13
76311;BME280;65120;59.304;18.294;2024-01-27T08:11:42;101752.66;;;-0.40;76.77
76311;BME280;65120;59.304;18.294;2024-01-27T08:14:09;101749.16;;;-0.42;77.07
76311;BME280;65120;59.304;18.294;2024-01-27T08:16:36;101767.06;;;-0.43;77.07
76311;BME280;65120;59.304;18.294;2024-01-27T08:19:03;101769.59;;;-0.45;77.19
76311;BME280;65120;59.304;18.294;2024-01-27T08:21:30;101782.38;;;-0.46;77.30
76311;BME280;65120;59.304;18.294;2024-01-27T08:23:57;101784.06;;;-0.47;76.85
76311;BME280;65120;59.304;18.294;2024-01-27T08:26:25;101782.25;;;-0.49;77.01
76311;BME280;65120;59.304;18.294;2024-01-27T08:28:52;101800.25;;;-0.49;76.86
76311;BME280;65120;59.304;18.294;2024-01-27T08:31:21;101806.97;;;-0.53;76.81
76311;BME280;65120;59.304;18.294;2024-01-27T08:33:48;101807.84;;;-0.52;77.29
76311;BME280;65120;59.304;18.294;2024-01-27T08:36:15;101803.47;;;-0.55;77.10
76311;BME280;65120;59.304;18.294;2024-01-27T08:38:42;101811.13;;;-0.57;77.62
76311;BME280;65120;59.304;18.294;2024-01-27T08:41:10;101811.06;;;-0.58;77.75
76311;BME280;65120;59.304;18.294;2024-01-27T08:43:38;101817.91;;;-0.59;77.42
76311;BME280;65120;59.304;18.294;2024-01-27T08:46:06;101838.41;;;-0.60;77.26
76311;BME280;65120;59.304;18.294;2024-01-27T08:48:36;101836.66;;;-0.61;77.33
76311;BME280;65120;59.304;18.294;2024-01-27T08:51:03;101845.09;;;-0.64;77.35
76311;BME280;65120;59.304;18.294;2024-01-27T08:53:30;101837.41;;;-0.64;77.17
76311;BME280;65120;59.304;18.294;2024-01-27T08:55:57;101847.69;;;-0.64;77.23
76311;BME280;65120;59.304;18.294;2024-01-27T08:58:24;101850.19;;;-0.65;77.21
76311;BME280;65120;59.304;18.294;2024-01-27T09:00:53;101851.06;;;-0.65;77.22
76311;BME280;65120;59.304;18.294;2024-01-27T09:03:20;101851.06;;;-0.65;77.44
76311;BME280;65120;59.304;18.294;2024-01-27T09:05:47;101857.91;;;-0.65;77.28
76311;BME280;65120;59.304;18.294;2024-01-27T09:08:14;101862.22;;;-0.64;77.54
76311;BME280;65120;59.304;18.294;2024-01-27T09:10:42;101865.66;;;-0.64;77.23
76311;BME280;65120;59.304;18.294;2024-01-27T09:13:09;101864.78;;;-0.64;77.06
76311;BME280;65120;59.304;18.294;2024-01-27T09:15:36;101869.09;;;-0.63;77.45
76311;BME280;65120;59.304;18.294;2024-01-27T09:18:05;101876.91;;;-0.62;77.06
76311;BME280;65120;59.304;18.294;2024-01-27T09:20:32;101869.19;;;-0.62;77.38
76311;BME280;65120;59.304;18.294;2024-01-27T09:22:59;101875.19;;;-0.61;77.05
76311;BME280;65120;59.304;18.294;2024-01-27T09:25:26;101871.75;;;-0.62;77.06
76311;BME280;65120;59.304;18.294;2024-01-27T09:27:53;101876.97;;;-0.60;76.84
76311;BME280;65120;59.304;18.294;2024-01-27T09:30:20;101884.69;;;-0.60;77.05
76311;BME280;65120;59.304;18.294;2024-01-27T09:32:47;101881.28;;;-0.59;77.45
76311;BME280;65120;59.304;18.294;2024-01-27T09:35:16;101880.47;;;-0.58;77.51
76311;BME280;65120;59.304;18.294;2024-01-27T09:37:43;101883.97;;;-0.56;76.83
76311;BME280;65120;59.304;18.294;2024-01-27T09:40:12;101883.16;;;-0.55;77.13
76311;BME280;65120;59.304;18.294;2024-01-27T09:42:39;101890.00;;;-0.56;77.03
76311;BME280;65120;59.304;18.294;2024-01-27T09:45:09;101882.34;;;-0.54;77.02
76311;BME280;65120;59.304;18.294;2024-01-27T09:47:36;101884.09;;;-0.53;76.68
76311;BME280;65120;59.304;18.294;2024-01-27T09:50:04;101892.69;;;-0.52;77.42
76311;BME280;65120;59.304;18.294;2024-01-27T09:52:34;101896.13;;;-0.52;77.21
76311;BME280;65120;59.304;18.294;2024-01-27T09:55:01;101899.66;;;-0.50;77.11
76311;BME280;65120;59.304;18.294;2024-01-27T09:57:32;101890.97;;;-0.52;76.86
76311;BME280;65120;59.304;18.294;2024-01-27T10:00:00;101898.91;;;-0.47;76.69
76311;BME280;65120;59.304;18.294;2024-01-27T10:02:29;101898.03;;;-0.48;76.98
76311;BME280;65120;59.304;18.294;2024-01-27T10:04:56;101898.97;;;-0.46;77.04
76311;BME280;65120;59.304;18.294;2024-01-27T10:07:23;101908.44;;;-0.45;76.94
76311;BME280;65120;59.304;18.294;2024-01-27T10:09:52;101901.59;;;-0.44;77.25
76311;BME280;65120;59.304;18.294;2024-01-27T10:12:20;101914.53;;;-0.43;77.08
76311;BME280;65120;59.304;18.294;2024-01-27T10:14:49;101920.59;;;-0.41;76.77
76311;BME280;65120;59.304;18.294;2024-01-27T10:17:21;101916.34;;;-0.40;77.06
76311;BME280;65120;59.304;18.294;2024-01-27T10:19:59;101919.84;;;-0.38;77.29
76311;BME280;65120;59.304;18.294;2024-01-27T10:22:27;101925.84;;;-0.38;76.91
76311;BME280;65120;59.304;18.294;2024-01-27T10:24:55;101930.19;;;-0.37;77.34
76311;BME280;65120;59.304;18.294;2024-01-27T10:27:22;101919.09;;;-0.36;77.03
76311;BME280;65120;59.304;18.294;2024-01-27T10:29:52;101920.84;;;-0.35;76.92
76311;BME280;65120;59.304;18.294;2024-01-27T10:32:20;101924.34;;;-0.33;77.21
76311;BME280;65120;59.304;18.294;2024-01-27T10:34:49;101920.06;;;-0.32;77.46
76311;BME280;65120;59.304;18.294;2024-01-27T10:37:24;101930.44;;;-0.30;77.46
76311;BME280;65120;59.304;18.294;2024-01-27T10:40:01;101930.47;;;-0.29;77.03
76311;BME280;65120;59.304;18.294;2024-01-27T10:42:29;101933.00;;;-0.30;77.15
76311;BME280;65120;59.304;18.294;2024-01-27T10:44:58;101937.44;;;-0.26;77.01
76311;BME280;65120;59.304;18.294;2024-01-27T10:47:27;101940.97;;;-0.24;76.82
76311;BME280;65120;59.304;18.294;2024-01-27T10:49:55;101953.00;;;-0.23;76.83
76311;BME280;65120;59.304;18.294;2024-01-27T10:52:23;101953.91;;;-0.23;76.71
76311;BME280;65120;59.304;18.294;2024-01-27T10:54:57;101948.81;;;-0.21;77.29
76311;BME280;65120;59.304;18.294;2024-01-27T10:57:28;101958.34;;;-0.19;76.91
76311;BME280;65120;59.304;18.294;2024-01-27T10:59:56;101953.28;;;-0.17;76.98
76311;BME280;65120;59.304;18.294;2024-01-27T11:02:24;101953.28;;;-0.17;77.18
76311;BME280;65120;59.304;18.294;2024-01-27T11:04:51;101950.63;;;-0.19;77.15
76311;BME280;65120;59.304;18.294;2024-01-27T11:07:20;101949.94;;;-0.15;76.67
76311;BME280;65120;59.304;18.294;2024-01-27T11:09:49;101949.94;;;-0.15;77.06
76311;BME280;65120;59.304;18.294;2024-01-27T11:12:18;101957.72;;;-0.13;76.69
76311;BME280;65120;59.304;18.294;2024-01-27T11:14:47;101947.84;;;-0.23;76.66
76311;BME280;65120;59.304;18.294;2024-01-27T11:17:14;101960.16;;;-0.16;76.96
76311;BME280;65120;59.304;18.294;2024-01-27T11:19:42;101962.03;;;-0.12;76.72
76311;BME280;65120;59.304;18.294;2024-01-27T11:22:23;101969.06;;;-0.08;76.70
76311;BME280;65120;59.304;18.294;2024-01-27T11:24:51;101981.06;;;-0.08;76.32
76311;BME280;65120;59.304;18.294;2024-01-27T11:27:18;101975.09;;;-0.07;76.16
76311;BME280;65120;59.304;18.294;2024-01-27T11:29:55;101980.16;;;-0.09;76.43
76311;BME280;65120;59.304;18.294;2024-01-27T11:32:22;101988.06;;;-0.04;76.94
76311;BME280;65120;59.304;18.294;2024-01-27T11:34:50;101982.03;;;-0.05;76.51
76311;BME280;65120;59.304;18.294;2024-01-27T11:37:17;101994.97;;;-0.03;76.30
76311;BME280;65120;59.304;18.294;2024-01-27T11:39:49;102007.81;;;-0.03;76.60
76311;BME280;65120;59.304;18.294;2024-01-27T11:42:16;102009.66;;;-0.01;76.80
76311;BME280;65120;59.304;18.294;2024-01-27T11:44:43;101998.47;;;-0.01;76.14
76311;BME280;65120;59.304;18.294;2024-01-27T11:47:16;102003.69;;;0.00;76.88
76311;BME280;65120;59.304;18.294;2024-01-27T11:49:44;102002.00;;;0.01;76.25
76311;BME280;65120;59.304;18.294;2024-01-27T11:52:16;102002.88;;;0.01;76.26
76311;BME280;65120;59.304;18.294;2024-01-27T11:54:44;102008.03;;;0.01;76.61
76311;BME280;65120;59.304;18.294;2024-01-27T11:57:11;102015.81;;;0.03;76.64
76311;BME280;65120;59.304;18.294;2024-01-27T11:59:37;102021.84;;;0.03;76.22
76311;BME280;65120;59.304;18.294;2024-01-27T12:02:05;102017.56;;;0.04;76.35
76311;BME280;65120;59.304;18.294;2024-01-27T12:04:34;102028.72;;;0.04;76.02
76311;BME280;65120;59.304;18.294;2024-01-27T12:07:01;102020.22;;;0.05;76.28
76311;BME280;65120;59.304;18.294;2024-01-27T12:09:28;102027.09;;;0.06;76.10
76311;BME280;65120;59.304;18.294;2024-01-27T12:11:55;102033.13;;;0.07;76.56
76311;BME280;65120;59.304;18.294;2024-01-27T12:14:22;102036.56;;;0.07;76.37
76311;BME280;65120;59.304;18.294;2024-01-27T12:16:50;102034.00;;;0.07;76.48
76311;BME280;65120;59.304;18.294;2024-01-27T12:19:18;102030.53;;;0.07;76.19
76311;BME280;65120;59.304;18.294;2024-01-27T12:21:50;102036.66;;;0.09;76.76
76311;BME280;65120;59.304;18.294;2024-01-27T12:24:17;102043.53;;;0.10;76.55
76311;BME280;65120;59.304;18.294;2024-01-27T12:26:45;102047.81;;;0.09;76.26
76311;BME280;65120;59.304;18.294;2024-01-27T12:29:12;102055.56;;;0.11;76.12
76311;BME280;65120;59.304;18.294;2024-01-27T12:31:39;102051.34;;;0.11;76.45
76311;BME280;65120;59.304;18.294;2024-01-27T12:34:07;102056.53;;;0.13;76.38
76311;BME280;65120;59.304;18.294;2024-01-27T12:36:40;102061.66;;;0.13;76.42
76311;BME280;65120;59.304;18.294;2024-01-27T12:39:09;102068.63;;;0.16;76.65
76311;BME280;65120;59.304;18.294;2024-01-27T12:41:36;102060.91;;;0.16;76.32
76311;BME280;65120;59.304;18.294;2024-01-27T12:44:05;102057.47;;;0.15;76.34
76311;BME280;65120;59.304;18.294;2024-01-27T12:46:32;102061.88;;;0.18;76.34
76311;BME280;65120;59.304;18.294;2024-01-27T12:48:59;102061.88;;;0.18;76.07